sensor_id;sensor_type;location;lat;lon;timestamp;pressure;altitude;pressure_sealevel;temperature;humidity
3250;BME280;1637;42.020;23.992;2023-07-13T00:01:45;93283.28;;;20.44;95.30
3250;BME280;1637;42.020;23.992;2023-07-13T00:04:16;93300.97;;;20.48;95.71
3250;BME280;1637;42.020;23.992;2023-07-13T00:06:43;93297.25;;;20.15;98.82
3250;BME280;1637;42.020;23.992;2023-07-13T00:09:13;93291.78;;;20.06;99.10
3250;BME280;1637;42.020;23.992;2023-07-13T00:11:41;93294.50;;;20.06;98.25
3250;BME280;1637;42.020;23.992;2023-07-13T00:14:08;93285.41;;;20.00;99.42
3250;BME280;1637;42.020;23.992;2023-07-13T00:16:37;93284.38;;;20.06;99.13
3250;BME280;1637;42.020;23.992;2023-07-13T00:19:05;93275.91;;;19.95;99.68
3250;BME280;1637;42.020;23.992;2023-07-13T00:21:32;93278.31;;;19.93;100.00
3250;BME280;1637;42.020;23.992;2023-07-13T00:24:00;93284.19;;;19.92;100.00
3250;BME280;1637;42.020;23.992;2023-07-13T00:26:28;93284.59;;;19.81;100.00
3250;BME280;1637;42.020;23.992;2023-07-13T00:28:55;93279.59;;;19.79;99.37
3250;BME280;1637;42.020;23.992;2023-07-13T00:31:22;93275.28;;;20.00;97.39
3250;BME280;1637;42.020;23.992;2023-07-13T00:33:48;93278.38;;;19.71;99.61
3250;BME280;1637;42.020;23.992;2023-07-13T00:36:15;93282.22;;;19.52;100.00
3250;BME280;1637;42.020;23.992;2023-07-13T00:38:42;93271.38;;;19.61;100.00
3250;BME280;1637;42.020;23.992;2023-07-13T00:41:09;93278.53;;;19.77;100.00
3250;BME280;1637;42.020;23.992;2023-07-13T00:43:38;93271.44;;;19.79;100.00
3250;BME280;1637;42.020;23.992;2023-07-13T00:46:21;93263.13;;;19.74;99.87
3250;BME280;1637;42.020;23.992;2023-07-13T00:48:49;93276.69;;;19.65;100.00
3250;BME280;1637;42.020;23.992;2023-07-13T00:51:19;93268.41;;;19.46;100.00
3250;BME280;1637;42.020;23.992;2023-07-13T00:53:46;93274.84;;;19.40;100.00
3250;BME280;1637;42.020;23.992;2023-07-13T00:56:13;93263.09;;;19.12;100.00
3250;BME280;1637;42.020;23.992;2023-07-13T00:58:42;93258.47;;;19.21;100.00
3250;BME280;1637;42.020;23.992;2023-07-13T01:01:09;93243.06;;;19.18;100.00
3250;BME280;1637;42.020;23.992;2023-07-13T01:03:38;93255.09;;;19.39;100.00
3250;BME280;1637;42.020;23.992;2023-07-13T01:06:06;93253.34;;;19.23;100.00
3250;BME280;1637;42.020;23.992;2023-07-13T01:08:33;93251.28;;;19.28;100.00
3250;BME280;1637;42.020;23.992;2023-07-13T01:11:00;93243.25;;;19.24;100.00
3250;BME280;1637;42.020;23.992;2023-07-13T01:13:27;93253.25;;;19.58;100.00
3250;BME280;1637;42.020;23.992;2023-07-13T01:15:57;93258.34;;;19.56;100.00
3250;BME280;1637;42.020;23.992;2023-07-13T01:18:27;93250.53;;;19.36;100.00
3250;BME280;1637;42.020;23.992;2023-07-13T01:20:57;93257.91;;;19.27;100.00
3250;BME280;1637;42.020;23.992;2023-07-13T01:23:25;93254.00;;;19.06;100.00
3250;BME280;1637;42.020;23.992;2023-07-13T01:25:52;93259.56;;;19.02;100.00
3250;BME280;1637;42.020;23.992;2023-07-13T01:28:21;93254.13;;;19.02;100.00
3250;BME280;1637;42.020;23.992;2023-07-13T01:30:48;93256.22;;;18.98;100.00
3250;BME280;1637;42.020;23.992;2023-07-13T01:33:16;93260.88;;;19.72;97.21
3250;BME280;1637;42.020;23.992;2023-07-13T01:35:44;93255.09;;;19.39;98.29
3250;BME280;1637;42.020;23.992;2023-07-13T01:38:13;93260.31;;;19.25;98.93
3250;BME280;1637;42.020;23.992;2023-07-13T01:40:41;93246.81;;;18.90;100.00
3250;BME280;1637;42.020;23.992;2023-07-13T01:43:09;93219.03;;;18.64;100.00
3250;BME280;1637;42.020;23.992;2023-07-13T01:45:36;93259.00;;;19.07;100.00
3250;BME280;1637;42.020;23.992;2023-07-13T01:48:03;93249.81;;;19.14;99.35
3250;BME280;1637;42.020;23.992;2023-07-13T01:50:32;93251.59;;;19.08;99.38
3250;BME280;1637;42.020;23.992;2023-07-13T01:52:58;93252.84;;;18.94;100.00
3250;BME280;1637;42.020;23.992;2023-07-13T01:55:27;93250.34;;;18.78;100.00
3250;BME280;1637;42.020;23.992;2023-07-13T01:57:54;93262.66;;;19.44;100.00
3250;BME280;1637;42.020;23.992;2023-07-13T02:00:21;93274.22;;;19.98;94.79
3250;BME280;1637;42.020;23.992;2023-07-13T02:02:48;93269.75;;;19.42;96.07
3250;BME280;1637;42.020;23.992;2023-07-13T02:05:15;93259.75;;;18.64;100.00
3250;BME280;1637;42.020;23.992;2023-07-13T02:07:42;93263.59;;;18.98;99.27
3250;BME280;1637;42.020;23.992;2023-07-13T02:10:10;93264.31;;;18.89;98.71
3250;BME280;1637;42.020;23.992;2023-07-13T02:12:38;93260.31;;;18.81;99.87
3250;BME280;1637;42.020;23.992;2023-07-13T02:15:06;93268.66;;;18.86;99.45
3250;BME280;1637;42.020;23.992;2023-07-13T02:17:34;93284.03;;;19.33;97.86
3250;BME280;1637;42.020;23.992;2023-07-13T02:20:00;93274.22;;;19.05;97.77
3250;BME280;1637;42.020;23.992;2023-07-13T02:22:28;93271.81;;;18.85;100.00
3250;BME280;1637;42.020;23.992;2023-07-13T02:24:54;93273.88;;;19.03;98.41
3250;BME280;1637;42.020;23.992;2023-07-13T02:27:21;93276.72;;;18.99;98.12
3250;BME280;1637;42.020;23.992;2023-07-13T02:29:50;93276.69;;;18.90;98.65
3250;BME280;1637;42.020;23.992;2023-07-13T02:32:17;93271.06;;;18.84;98.38
3250;BME280;1637;42.020;23.992;2023-07-13T02:34:44;93271.22;;;18.55;99.66
3250;BME280;1637;42.020;23.992;2023-07-13T02:37:11;93272.25;;;18.49;100.00
3250;BME280;1637;42.020;23.992;2023-07-13T02:39:38;93267.50;;;18.40;100.00
3250;BME280;1637;42.020;23.992;2023-07-13T02:42:06;93275.25;;;18.16;100.00
3250;BME280;1637;42.020;23.992;2023-07-13T02:44:33;93282.06;;;18.21;100.00
3250;BME280;1637;42.020;23.992;2023-07-13T02:47:01;93273.84;;;18.12;100.00
3250;BME280;1637;42.020;23.992;2023-07-13T02:49:28;93277.97;;;18.16;100.00
3250;BME280;1637;42.020;23.992;2023-07-13T02:51:54;93269.31;;;17.96;100.00
3250;BME280;1637;42.020;23.992;2023-07-13T02:54:21;93266.94;;;17.98;100.00
3250;BME280;1637;42.020;23.992;2023-07-13T02:56:48;93267.81;;;17.95;100.00
3250;BME280;1637;42.020;23.992;2023-07-13T02:59:15;93280.56;;;18.54;100.00
3250;BME280;1637;42.020;23.992;2023-07-13T03:01:42;93292.88;;;18.34;100.00
3250;BME280;1637;42.020;23.992;2023-07-13T03:04:10;93291.09;;;18.18;100.00
3250;BME280;1637;42.020;23.992;2023-07-13T03:06:37;93284.94;;;17.79;100.00
3250;BME280;1637;42.020;23.992;2023-07-13T03:09:04;93282.25;;;17.79;100.00
3250;BME280;1637;42.020;23.992;2023-07-13T03:11:31;93288.59;;;17.60;100.00
3250;BME280;1637;42.020;23.992;2023-07-13T03:13:58;93284.63;;;17.77;100.00
3250;BME280;1637;42.020;23.992;2023-07-13T03:16:25;93288.81;;;18.16;100.00
3250;BME280;1637;42.020;23.992;2023-07-13T03:18:52;93287.13;;;18.44;100.00
3250;BME280;1637;42.020;23.992;2023-07-13T03:21:20;93281.38;;;18.30;100.00
3250;BME280;1637;42.020;23.992;2023-07-13T03:23:47;93278.22;;;18.44;100.00
3250;BME280;1637;42.020;23.992;2023-07-13T03:26:16;93275.50;;;18.44;99.08
3250;BME280;1637;42.020;23.992;2023-07-13T03:28:44;93270.38;;;18.24;100.00
3250;BME280;1637;42.020;23.992;2023-07-13T03:31:13;93278.47;;;18.37;100.00
3250;BME280;1637;42.020;23.992;2023-07-13T03:33:41;93287.13;;;18.44;100.00
3250;BME280;1637;42.020;23.992;2023-07-13T03:36:16;93283.53;;;18.82;97.64
3250;BME280;1637;42.020;23.992;2023-07-13T03:38:46;93288.47;;;19.18;94.57
3250;BME280;1637;42.020;23.992;2023-07-13T03:41:13;93294.63;;;19.62;91.80
3250;BME280;1637;42.020;23.992;2023-07-13T03:43:40;93310.75;;;19.87;89.62
3250;BME280;1637;42.020;23.992;2023-07-13T03:46:07;93296.34;;;20.18;85.93
3250;BME280;1637;42.020;23.992;2023-07-13T03:48:34;93286.34;;;20.55;82.43
3250;BME280;1637;42.020;23.992;2023-07-13T03:51:01;93291.78;;;20.55;81.57
3250;BME280;1637;42.020;23.992;2023-07-13T03:53:28;93293.09;;;20.41;82.28
3250;BME280;1637;42.020;23.992;2023-07-13T03:55:56;93298.84;;;20.43;83.01
3250;BME280;1637;42.020;23.992;2023-07-13T03:58:28;93300.53;;;20.68;81.74
3250;BME280;1637;42.020;23.992;2023-07-13T04:00:55;93322.34;;;21.23;79.71
3250;BME280;1637;42.020;23.992;2023-07-13T04:03:23;93305.97;;;21.41;77.03
3250;BME280;1637;42.020;23.992;2023-07-13T04:05:50;93308.81;;;22.16;74.01
3250;BME280;1637;42.020;23.992;2023-07-13T04:08:16;93313.44;;;21.83;73.59
3250;BME280;1637;42.020;23.992;2023-07-13T04:10:44;93302.63;;;22.40;72.17
3250;BME280;1637;42.020;23.992;2023-07-13T04:13:12;93296.03;;;22.79;71.05
3250;BME280;1637;42.020;23.992;2023-07-13T04:15:40;93302.25;;;22.47;72.41
3250;BME280;1637;42.020;23.992;2023-07-13T04:18:07;93295.78;;;22.11;74.77
3250;BME280;1637;42.020;23.992;2023-07-13T04:20:34;93300.59;;;21.74;76.40
3250;BME280;1637;42.020;23.992;2023-07-13T04:23:01;93293.31;;;21.80;77.07
3250;BME280;1637;42.020;23.992;2023-07-13T04:25:28;93303.88;;;22.29;74.74
3250;BME280;1637;42.020;23.992;2023-07-13T04:27:55;93294.81;;;22.71;72.32
3250;BME280;1637;42.020;23.992;2023-07-13T04:30:23;93304.09;;;23.12;71.49
3250;BME280;1637;42.020;23.992;2023-07-13T04:32:51;93309.88;;;22.90;72.37
3250;BME280;1637;42.020;23.992;2023-07-13T04:35:18;93277.81;;;22.52;75.37
3250;BME280;1637;42.020;23.992;2023-07-13T04:37:47;93316.81;;;23.01;74.77
3250;BME280;1637;42.020;23.992;2023-07-13T04:40:16;93304.53;;;22.96;74.73
3250;BME280;1637;42.020;23.992;2023-07-13T04:42:43;93306.59;;;23.25;73.00
3250;BME280;1637;42.020;23.992;2023-07-13T04:45:10;93299.78;;;23.06;73.78
3250;BME280;1637;42.020;23.992;2023-07-13T04:47:39;93309.50;;;23.51;72.14
3250;BME280;1637;42.020;23.992;2023-07-13T04:50:08;93308.88;;;24.00;70.28
3250;BME280;1637;42.020;23.992;2023-07-13T04:52:36;93308.03;;;24.44;68.66
3250;BME280;1637;42.020;23.992;2023-07-13T04:55:03;93309.13;;;24.17;69.82
3250;BME280;1637;42.020;23.992;2023-07-13T04:57:30;93319.00;;;24.44;68.74
3250;BME280;1637;42.020;23.992;2023-07-13T04:59:57;93316.53;;;25.01;66.23
3250;BME280;1637;42.020;23.992;2023-07-13T05:02:26;93307.44;;;25.36;65.09
3250;BME280;1637;42.020;23.992;2023-07-13T05:04:55;93304.63;;;25.76;63.43
3250;BME280;1637;42.020;23.992;2023-07-13T05:07:21;93308.22;;;25.88;63.45
3250;BME280;1637;42.020;23.992;2023-07-13T05:09:48;93310.69;;;26.17;62.51
3250;BME280;1637;42.020;23.992;2023-07-13T05:12:15;93316.97;;;26.23;62.57
3250;BME280;1637;42.020;23.992;2023-07-13T05:14:42;93303.78;;;25.96;63.38
3250;BME280;1637;42.020;23.992;2023-07-13T05:17:09;93305.94;;;25.86;63.60
3250;BME280;1637;42.020;23.992;2023-07-13T05:19:36;93300.47;;;26.55;62.15
3250;BME280;1637;42.020;23.992;2023-07-13T05:22:04;93311.19;;;26.21;64.14
3250;BME280;1637;42.020;23.992;2023-07-13T05:24:31;93310.56;;;26.75;61.16
3250;BME280;1637;42.020;23.992;2023-07-13T05:26:58;93318.06;;;27.28;59.78
3250;BME280;1637;42.020;23.992;2023-07-13T05:29:25;93315.88;;;26.89;60.60
3250;BME280;1637;42.020;23.992;2023-07-13T05:31:51;93303.53;;;27.27;59.76
3250;BME280;1637;42.020;23.992;2023-07-13T05:34:18;93308.34;;;27.49;59.20
3250;BME280;1637;42.020;23.992;2023-07-13T05:36:45;93304.00;;;27.15;60.90
3250;BME280;1637;42.020;23.992;2023-07-13T05:39:14;93315.44;;;26.96;61.24
3250;BME280;1637;42.020;23.992;2023-07-13T05:41:40;93322.44;;;27.90;59.07
3250;BME280;1637;42.020;23.992;2023-07-13T05:44:07;93319.84;;;29.04;54.79
3250;BME280;1637;42.020;23.992;2023-07-13T05:46:34;93321.78;;;29.20;54.22
3250;BME280;1637;42.020;23.992;2023-07-13T05:49:01;93311.88;;;28.78;56.24
3250;BME280;1637;42.020;23.992;2023-07-13T05:51:28;93317.47;;;28.33;56.69
3250;BME280;1637;42.020;23.992;2023-07-13T05:53:55;93315.22;;;28.43;57.54
3250;BME280;1637;42.020;23.992;2023-07-13T05:56:23;93311.97;;;28.45;56.32
3250;BME280;1637;42.020;23.992;2023-07-13T05:58:52;93283.38;;;28.48;57.06
3250;BME280;1637;42.020;23.992;2023-07-13T06:01:18;93308.16;;;28.81;56.05
3250;BME280;1637;42.020;23.992;2023-07-13T06:03:46;93326.97;;;29.46;54.33
3250;BME280;1637;42.020;23.992;2023-07-13T06:06:16;93304.16;;;29.34;53.61
3250;BME280;1637;42.020;23.992;2023-07-13T06:08:43;93322.34;;;30.06;51.91
3250;BME280;1637;42.020;23.992;2023-07-13T06:11:13;93322.91;;;30.59;51.00
3250;BME280;1637;42.020;23.992;2023-07-13T06:13:42;93325.69;;;30.59;50.35
3250;BME280;1637;42.020;23.992;2023-07-13T06:16:09;93326.19;;;31.12;49.41
3250;BME280;1637;42.020;23.992;2023-07-13T06:18:37;93317.63;;;30.86;49.85
3250;BME280;1637;42.020;23.992;2023-07-13T06:21:08;93292.00;;;30.31;51.42
3250;BME280;1637;42.020;23.992;2023-07-13T06:23:35;93309.00;;;30.11;52.01
3250;BME280;1637;42.020;23.992;2023-07-13T06:26:02;93333.53;;;30.80;50.63
3250;BME280;1637;42.020;23.992;2023-07-13T06:28:29;93313.94;;;31.45;49.22
3250;BME280;1637;42.020;23.992;2023-07-13T06:30:58;93309.31;;;31.34;48.87
3250;BME280;1637;42.020;23.992;2023-07-13T06:33:25;93312.91;;;31.67;48.19
3250;BME280;1637;42.020;23.992;2023-07-13T06:35:53;93304.94;;;31.95;48.50
3250;BME280;1637;42.020;23.992;2023-07-13T06:38:20;93309.28;;;31.91;48.95
3250;BME280;1637;42.020;23.992;2023-07-13T06:40:47;93301.16;;;31.80;48.70
3250;BME280;1637;42.020;23.992;2023-07-13T06:43:14;93304.53;;;32.04;49.98
3250;BME280;1637;42.020;23.992;2023-07-13T06:45:43;93304.66;;;32.89;45.92
3250;BME280;1637;42.020;23.992;2023-07-13T06:48:12;93300.19;;;32.99;45.85
3250;BME280;1637;42.020;23.992;2023-07-13T06:50:40;93297.56;;;33.54;45.61
3250;BME280;1637;42.020;23.992;2023-07-13T06:53:08;93300.06;;;33.05;46.39
3250;BME280;1637;42.020;23.992;2023-07-13T06:55:34;93297.09;;;33.16;44.26
3250;BME280;1637;42.020;23.992;2023-07-13T06:58:01;93297.91;;;32.71;46.53
3250;BME280;1637;42.020;23.992;2023-07-13T07:00:28;93305.94;;;33.15;44.15
3250;BME280;1637;42.020;23.992;2023-07-13T07:02:55;93293.44;;;33.08;44.07
3250;BME280;1637;42.020;23.992;2023-07-13T07:05:23;93283.94;;;33.17;43.25
3250;BME280;1637;42.020;23.992;2023-07-13T07:07:51;93291.47;;;32.50;44.35
3250;BME280;1637;42.020;23.992;2023-07-13T07:10:18;93296.63;;;33.52;44.34
3250;BME280;1637;42.020;23.992;2023-07-13T07:12:46;93302.47;;;34.08;42.97
3250;BME280;1637;42.020;23.992;2023-07-13T07:15:13;93283.59;;;34.56;40.97
3250;BME280;1637;42.020;23.992;2023-07-13T07:17:40;93307.16;;;34.55;40.01
3250;BME280;1637;42.020;23.992;2023-07-13T07:20:07;93293.44;;;34.16;40.88
3250;BME280;1637;42.020;23.992;2023-07-13T07:22:36;93298.91;;;33.87;41.85
3250;BME280;1637;42.020;23.992;2023-07-13T07:25:03;93287.06;;;33.87;42.35
3250;BME280;1637;42.020;23.992;2023-07-13T07:27:30;93292.06;;;34.09;42.37
3250;BME280;1637;42.020;23.992;2023-07-13T07:29:57;93295.47;;;34.57;40.04
3250;BME280;1637;42.020;23.992;2023-07-13T07:32:24;93284.91;;;34.34;38.06
3250;BME280;1637;42.020;23.992;2023-07-13T07:34:51;93285.69;;;34.63;38.69
3250;BME280;1637;42.020;23.992;2023-07-13T07:37:17;93275.50;;;34.87;39.12
3250;BME280;1637;42.020;23.992;2023-07-13T07:39:46;93282.84;;;35.33;40.05
3250;BME280;1637;42.020;23.992;2023-07-13T07:42:12;93280.34;;;35.66;36.23
3250;BME280;1637;42.020;23.992;2023-07-13T07:44:40;93282.22;;;35.71;36.29
3250;BME280;1637;42.020;23.992;2023-07-13T07:47:07;93279.03;;;36.41;34.00
3250;BME280;1637;42.020;23.992;2023-07-13T07:49:34;93278.22;;;35.87;35.44
3250;BME280;1637;42.020;23.992;2023-07-13T07:52:02;93264.56;;;35.68;36.06
3250;BME280;1637;42.020;23.992;2023-07-13T07:54:29;93270.03;;;35.89;37.61
3250;BME280;1637;42.020;23.992;2023-07-13T07:56:57;93269.31;;;35.45;36.70
3250;BME280;1637;42.020;23.992;2023-07-13T07:59:24;93269.25;;;35.73;34.38
3250;BME280;1637;42.020;23.992;2023-07-13T08:01:51;93270.75;;;35.82;35.22
3250;BME280;1637;42.020;23.992;2023-07-13T08:04:18;93215.00;;;35.82;34.01
3250;BME280;1637;42.020;23.992;2023-07-13T08:06:44;93271.38;;;36.19;34.48
3250;BME280;1637;42.020;23.992;2023-07-13T08:09:11;93253.94;;;35.52;35.79
3250;BME280;1637;42.020;23.992;2023-07-13T08:11:38;93258.16;;;35.89;36.48
3250;BME280;1637;42.020;23.992;2023-07-13T08:14:06;93259.72;;;36.35;35.25
3250;BME280;1637;42.020;23.992;2023-07-13T08:16:34;93260.81;;;36.47;34.31
3250;BME280;1637;42.020;23.992;2023-07-13T08:19:01;93258.56;;;36.15;37.21
3250;BME280;1637;42.020;23.992;2023-07-13T08:21:29;93262.13;;;36.54;33.79
3250;BME280;1637;42.020;23.992;2023-07-13T08:23:56;93258.75;;;36.63;33.17
3250;BME280;1637;42.020;23.992;2023-07-13T08:26:23;93252.06;;;36.89;32.95
3250;BME280;1637;42.020;23.992;2023-07-13T08:28:50;93249.09;;;36.41;33.65
3250;BME280;1637;42.020;23.992;2023-07-13T08:31:18;93245.31;;;37.00;33.54
3250;BME280;1637;42.020;23.992;2023-07-13T08:33:45;93246.59;;;37.14;33.38
3250;BME280;1637;42.020;23.992;2023-07-13T08:36:12;93246.88;;;36.47;35.67
3250;BME280;1637;42.020;23.992;2023-07-13T08:38:38;93234.56;;;36.66;36.29
3250;BME280;1637;42.020;23.992;2023-07-13T08:41:11;93239.69;;;37.23;34.65
3250;BME280;1637;42.020;23.992;2023-07-13T08:43:38;93244.19;;;37.10;34.20
3250;BME280;1637;42.020;23.992;2023-07-13T08:46:09;93235.25;;;37.60;33.51
3250;BME280;1637;42.020;23.992;2023-07-13T08:48:42;93232.34;;;36.72;34.54
3250;BME280;1637;42.020;23.992;2023-07-13T08:51:28;93249.63;;;36.93;33.09
3250;BME280;1637;42.020;23.992;2023-07-13T08:54:00;93231.72;;;37.19;33.00
3250;BME280;1637;42.020;23.992;2023-07-13T08:56:29;93240.47;;;37.00;32.09
3250;BME280;1637;42.020;23.992;2023-07-13T08:58:58;93235.69;;;37.48;30.69
3250;BME280;1637;42.020;23.992;2023-07-13T09:01:47;93225.31;;;37.34;32.70
3250;BME280;1637;42.020;23.992;2023-07-13T09:04:25;93229.91;;;37.46;31.61
3250;BME280;1637;42.020;23.992;2023-07-13T09:07:01;93222.31;;;37.39;31.11
3250;BME280;1637;42.020;23.992;2023-07-13T09:09:44;93220.22;;;37.47;31.80
3250;BME280;1637;42.020;23.992;2023-07-13T09:15:01;93207.94;;;38.08;29.69
3250;BME280;1637;42.020;23.992;2023-07-13T09:17:35;93207.56;;;38.11;28.96
3250;BME280;1637;42.020;23.992;2023-07-13T09:20:10;93208.31;;;38.37;29.48
3250;BME280;1637;42.020;23.992;2023-07-13T09:22:41;93199.88;;;38.20;29.11
3250;BME280;1637;42.020;23.992;2023-07-13T09:25:21;93197.47;;;38.83;28.65
3250;BME280;1637;42.020;23.992;2023-07-13T09:27:53;93197.06;;;39.21;27.42
3250;BME280;1637;42.020;23.992;2023-07-13T09:30:27;93194.75;;;38.50;28.57
3250;BME280;1637;42.020;23.992;2023-07-13T09:32:55;93190.09;;;38.28;27.91
3250;BME280;1637;42.020;23.992;2023-07-13T09:35:27;93192.47;;;38.57;29.61
3250;BME280;1637;42.020;23.992;2023-07-13T09:37:58;93191.75;;;38.73;28.08
3250;BME280;1637;42.020;23.992;2023-07-13T09:40:30;93191.16;;;38.58;27.32
3250;BME280;1637;42.020;23.992;2023-07-13T09:43:03;93181.53;;;38.01;28.86
3250;BME280;1637;42.020;23.992;2023-07-13T09:45:33;93177.97;;;38.26;28.45
3250;BME280;1637;42.020;23.992;2023-07-13T09:48:05;93181.72;;;38.45;27.66
3250;BME280;1637;42.020;23.992;2023-07-13T09:50:34;93173.94;;;38.19;28.23
3250;BME280;1637;42.020;23.992;2023-07-13T09:53:02;93164.72;;;38.26;28.49
3250;BME280;1637;42.020;23.992;2023-07-13T09:55:31;93163.66;;;37.72;28.10
3250;BME280;1637;42.020;23.992;2023-07-13T09:58:03;93164.09;;;37.53;28.95
3250;BME280;1637;42.020;23.992;2023-07-13T10:00:31;93143.47;;;36.00;30.76
3250;BME280;1637;42.020;23.992;2023-07-13T10:03:03;93145.44;;;36.60;30.27
3250;BME280;1637;42.020;23.992;2023-07-13T10:05:40;93143.38;;;37.31;29.14
3250;BME280;1637;42.020;23.992;2023-07-13T10:08:16;93142.03;;;38.22;28.76
3250;BME280;1637;42.020;23.992;2023-07-13T10:10:44;93144.34;;;38.08;27.85
3250;BME280;1637;42.020;23.992;2023-07-13T10:13:31;93129.44;;;37.24;28.46
3250;BME280;1637;42.020;23.992;2023-07-13T10:16:00;93130.69;;;36.90;29.76
3250;BME280;1637;42.020;23.992;2023-07-13T10:18:28;93126.56;;;37.96;28.85
3250;BME280;1637;42.020;23.992;2023-07-13T10:21:11;93129.78;;;38.10;27.39
3250;BME280;1637;42.020;23.992;2023-07-13T10:23:39;93121.97;;;36.71;29.19
3250;BME280;1637;42.020;23.992;2023-07-13T10:26:14;93127.91;;;37.30;28.77
3250;BME280;1637;42.020;23.992;2023-07-13T10:28:45;93119.63;;;37.00;29.15
3250;BME280;1637;42.020;23.992;2023-07-13T10:31:15;93114.53;;;37.54;28.26
3250;BME280;1637;42.020;23.992;2023-07-13T10:33:42;93118.59;;;38.52;27.70
3250;BME280;1637;42.020;23.992;2023-07-13T10:36:19;93119.03;;;37.49;28.49
3250;BME280;1637;42.020;23.992;2023-07-13T10:38:51;93108.94;;;37.21;29.42
3250;BME280;1637;42.020;23.992;2023-07-13T10:41:21;93108.28;;;37.95;29.65
3250;BME280;1637;42.020;23.992;2023-07-13T10:43:52;93116.69;;;38.20;28.66
3250;BME280;1637;42.020;23.992;2023-07-13T10:46:22;93107.63;;;37.55;28.20
3250;BME280;1637;42.020;23.992;2023-07-13T10:48:54;93100.38;;;37.52;28.36
3250;BME280;1637;42.020;23.992;2023-07-13T10:51:23;93099.78;;;38.10;27.62
3250;BME280;1637;42.020;23.992;2023-07-13T10:54:12;93105.66;;;37.97;27.54
3250;BME280;1637;42.020;23.992;2023-07-13T10:56:42;93104.75;;;37.70;27.84
3250;BME280;1637;42.020;23.992;2023-07-13T10:59:12;93111.16;;;38.12;27.70
3250;BME280;1637;42.020;23.992;2023-07-13T11:01:48;93106.31;;;38.05;26.77
3250;BME280;1637;42.020;23.992;2023-07-13T11:04:18;93101.06;;;38.09;27.31
3250;BME280;1637;42.020;23.992;2023-07-13T11:06:48;93107.16;;;37.98;28.02
3250;BME280;1637;42.020;23.992;2023-07-13T11:09:31;93095.13;;;38.05;28.29
3250;BME280;1637;42.020;23.992;2023-07-13T11:11:59;93089.22;;;38.01;27.29
3250;BME280;1637;42.020;23.992;2023-07-13T11:14:31;93085.59;;;38.08;28.33
3250;BME280;1637;42.020;23.992;2023-07-13T11:17:36;93079.75;;;38.39;27.06
3250;BME280;1637;42.020;23.992;2023-07-13T11:20:20;93073.56;;;38.40;26.71
3250;BME280;1637;42.020;23.992;2023-07-13T11:22:52;93070.22;;;38.00;26.97
3250;BME280;1637;42.020;23.992;2023-07-13T11:25:27;93081.84;;;38.13;27.39
3250;BME280;1637;42.020;23.992;2023-07-13T11:28:11;93072.16;;;38.14;27.90
3250;BME280;1637;42.020;23.992;2023-07-13T11:30:42;93073.50;;;38.06;27.82
3250;BME280;1637;42.020;23.992;2023-07-13T11:33:20;93067.91;;;38.06;27.33
3250;BME280;1637;42.020;23.992;2023-07-13T11:35:58;93075.50;;;37.63;27.90
3250;BME280;1637;42.020;23.992;2023-07-13T11:38:32;93067.88;;;37.64;28.33
3250;BME280;1637;42.020;23.992;2023-07-13T11:41:04;93064.47;;;37.73;27.88
3250;BME280;1637;42.020;23.992;2023-07-13T11:43:31;93068.50;;;37.55;28.35
3250;BME280;1637;42.020;23.992;2023-07-13T11:46:12;93068.34;;;37.53;27.76
3250;BME280;1637;42.020;23.992;2023-07-13T11:48:39;93073.66;;;37.41;28.50
3250;BME280;1637;42.020;23.992;2023-07-13T11:51:16;93067.38;;;37.58;27.58
3250;BME280;1637;42.020;23.992;2023-07-13T11:53:49;93064.97;;;37.54;28.50
3250;BME280;1637;42.020;23.992;2023-07-13T11:56:17;93063.59;;;37.63;28.15
3250;BME280;1637;42.020;23.992;2023-07-13T11:58:48;93060.94;;;37.72;28.21
3250;BME280;1637;42.020;23.992;2023-07-13T12:01:20;93066.34;;;37.95;29.07
3250;BME280;1637;42.020;23.992;2023-07-13T12:03:48;93049.31;;;38.01;28.46
3250;BME280;1637;42.020;23.992;2023-07-13T12:06:31;93067.38;;;37.58;29.69
3250;BME280;1637;42.020;23.992;2023-07-13T12:09:03;93062.28;;;37.64;29.04
3250;BME280;1637;42.020;23.992;2023-07-13T12:11:40;93053.16;;;37.63;29.10
3250;BME280;1637;42.020;23.992;2023-07-13T12:14:13;93057.09;;;37.35;29.53
3250;BME280;1637;42.020;23.992;2023-07-13T12:16:41;93053.00;;;37.61;29.35
3250;BME280;1637;42.020;23.992;2023-07-13T12:19:17;93044.22;;;37.40;29.30
3250;BME280;1637;42.020;23.992;2023-07-13T12:21:44;93042.97;;;37.33;30.07
3250;BME280;1637;42.020;23.992;2023-07-13T12:24:18;93038.16;;;37.26;30.02
3250;BME280;1637;42.020;23.992;2023-07-13T12:26:51;93042.50;;;37.44;30.45
3250;BME280;1637;42.020;23.992;2023-07-13T12:29:18;93023.44;;;37.50;29.01
3250;BME280;1637;42.020;23.992;2023-07-13T12:31:47;93007.13;;;37.14;29.54
3250;BME280;1637;42.020;23.992;2023-07-13T12:34:16;93039.72;;;37.69;30.04
3250;BME280;1637;42.020;23.992;2023-07-13T12:36:46;93035.22;;;37.74;29.37
3250;BME280;1637;42.020;23.992;2023-07-13T12:39:18;93030.47;;;37.34;29.98
3250;BME280;1637;42.020;23.992;2023-07-13T12:41:47;93027.09;;;37.36;29.86
3250;BME280;1637;42.020;23.992;2023-07-13T12:44:18;93038.16;;;37.26;30.62
3250;BME280;1637;42.020;23.992;2023-07-13T12:46:58;93035.97;;;37.42;30.26
3250;BME280;1637;42.020;23.992;2023-07-13T12:49:29;93024.09;;;37.09;31.28
3250;BME280;1637;42.020;23.992;2023-07-13T12:52:00;93020.69;;;36.86;30.84
3250;BME280;1637;42.020;23.992;2023-07-13T12:54:29;93019.81;;;37.08;30.81
3250;BME280;1637;42.020;23.992;2023-07-13T12:56:58;93020.78;;;37.03;30.95
3250;BME280;1637;42.020;23.992;2023-07-13T12:59:31;93021.69;;;37.05;31.07
3250;BME280;1637;42.020;23.992;2023-07-13T13:02:02;93021.28;;;37.09;32.40
3250;BME280;1637;42.020;23.992;2023-07-13T13:04:30;93016.41;;;36.85;32.27
3250;BME280;1637;42.020;23.992;2023-07-13T13:07:02;93020.13;;;36.87;32.87
3250;BME280;1637;42.020;23.992;2023-07-13T13:09:30;93023.00;;;37.04;32.02
3250;BME280;1637;42.020;23.992;2023-07-13T13:11:58;93016.94;;;36.91;32.27
3250;BME280;1637;42.020;23.992;2023-07-13T13:14:25;93019.59;;;37.13;32.85
3250;BME280;1637;42.020;23.992;2023-07-13T13:16:52;93005.16;;;36.60;31.85
3250;BME280;1637;42.020;23.992;2023-07-13T13:19:22;93022.22;;;36.71;31.78
3250;BME280;1637;42.020;23.992;2023-07-13T13:21:50;93020.78;;;37.03;31.78
3250;BME280;1637;42.020;23.992;2023-07-13T13:24:19;93013.97;;;37.21;31.21